sensor_id;sensor_type;location;lat;lon;timestamp;P1;durP1;ratioP1;P2;durP2;ratioP2
4986;SDS011;12674;51.500;7.552;2023-02-01T00:00:07;39.43;;;14.70;;
4986;SDS011;12674;51.500;7.552;2023-02-01T00:02:11;26.83;;;12.77;;
4986;SDS011;12674;51.500;7.552;2023-02-01T00:04:14;30.60;;;12.50;;
4986;SDS011;12674;51.500;7.552;2023-02-01T00:06:18;45.77;;;13.60;;
4986;SDS011;12674;51.500;7.552;2023-02-01T00:08:21;28.27;;;13.40;;
4986;SDS011;12674;51.500;7.552;2023-02-01T00:10:23;33.90;;;13.47;;
4986;SDS011;12674;51.500;7.552;2023-02-01T00:12:26;23.93;;;11.47;;
4986;SDS011;12674;51.500;7.552;2023-02-01T00:14:29;45.93;;;13.10;;
4986;SDS011;12674;51.500;7.552;2023-02-01T00:16:33;30.93;;;12.30;;
4986;SDS011;12674;51.500;7.552;2023-02-01T00:18:36;27.00;;;11.07;;
4986;SDS011;12674;51.500;7.552;2023-02-01T00:20:39;30.07;;;10.33;;
4986;SDS011;12674;51.500;7.552;2023-02-01T00:22:49;27.33;;;10.60;;
4986;SDS011;12674;51.500;7.552;2023-02-01T00:24:52;23.73;;;9.80;;
4986;SDS011;12674;51.500;7.552;2023-02-01T00:26:55;25.27;;;9.40;;
4986;SDS011;12674;51.500;7.552;2023-02-01T00:28:58;23.30;;;9.23;;
4986;SDS011;12674;51.500;7.552;2023-02-01T00:31:02;23.30;;;9.60;;
4986;SDS011;12674;51.500;7.552;2023-02-01T00:33:06;19.80;;;7.60;;
4986;SDS011;12674;51.500;7.552;2023-02-01T00:35:09;23.87;;;9.60;;
4986;SDS011;12674;51.500;7.552;2023-02-01T00:37:13;26.10;;;8.87;;
4986;SDS011;12674;51.500;7.552;2023-02-01T00:39:17;28.77;;;8.27;;
4986;SDS011;12674;51.500;7.552;2023-02-01T00:41:23;27.27;;;9.10;;
4986;SDS011;12674;51.500;7.552;2023-02-01T00:43:26;25.03;;;8.50;;
4986;SDS011;12674;51.500;7.552;2023-02-01T00:45:29;30.10;;;7.67;;
4986;SDS011;12674;51.500;7.552;2023-02-01T00:47:32;21.17;;;7.40;;
4986;SDS011;12674;51.500;7.552;2023-02-01T00:49:35;21.17;;;6.57;;
4986;SDS011;12674;51.500;7.552;2023-02-01T00:51:38;22.17;;;6.70;;
4986;SDS011;12674;51.500;7.552;2023-02-01T00:53:41;15.17;;;6.33;;
4986;SDS011;12674;51.500;7.552;2023-02-01T00:55:46;23.50;;;7.43;;
4986;SDS011;12674;51.500;7.552;2023-02-01T00:57:50;26.93;;;6.20;;
4986;SDS011;12674;51.500;7.552;2023-02-01T00:59:53;23.90;;;6.17;;
4986;SDS011;12674;51.500;7.552;2023-02-01T01:01:56;28.10;;;5.97;;
4986;SDS011;12674;51.500;7.552;2023-02-01T01:03:59;19.27;;;6.10;;
4986;SDS011;12674;51.500;7.552;2023-02-01T01:06:03;18.53;;;5.30;;
4986;SDS011;12674;51.500;7.552;2023-02-01T01:08:09;14.97;;;4.90;;
4986;SDS011;12674;51.500;7.552;2023-02-01T01:10:12;20.30;;;5.03;;
4986;SDS011;12674;51.500;7.552;2023-02-01T01:12:16;19.53;;;5.00;;
4986;SDS011;12674;51.500;7.552;2023-02-01T01:14:21;12.50;;;4.67;;
4986;SDS011;12674;51.500;7.552;2023-02-01T01:16:25;31.13;;;4.80;;
4986;SDS011;12674;51.500;7.552;2023-02-01T01:18:29;29.33;;;6.10;;
4986;SDS011;12674;51.500;7.552;2023-02-01T01:20:33;18.23;;;4.43;;
4986;SDS011;12674;51.500;7.552;2023-02-01T01:22:37;15.80;;;4.37;;
4986;SDS011;12674;51.500;7.552;2023-02-01T01:24:40;18.50;;;5.23;;
4986;SDS011;12674;51.500;7.552;2023-02-01T01:26:43;11.40;;;3.50;;
4986;SDS011;12674;51.500;7.552;2023-02-01T01:28:47;19.60;;;5.00;;
4986;SDS011;12674;51.500;7.552;2023-02-01T01:30:50;17.90;;;4.80;;
4986;SDS011;12674;51.500;7.552;2023-02-01T01:32:53;16.30;;;3.47;;
4986;SDS011;12674;51.500;7.552;2023-02-01T01:34:56;15.63;;;4.50;;
4986;SDS011;12674;51.500;7.552;2023-02-01T01:36:59;18.10;;;3.73;;
4986;SDS011;12674;51.500;7.552;2023-02-01T01:39:02;20.80;;;4.37;;
4986;SDS011;12674;51.500;7.552;2023-02-01T01:41:05;28.53;;;4.87;;
4986;SDS011;12674;51.500;7.552;2023-02-01T01:43:11;15.83;;;4.00;;
4986;SDS011;12674;51.500;7.552;2023-02-01T01:45:26;20.93;;;4.53;;
4986;SDS011;12674;51.500;7.552;2023-02-01T01:47:30;13.27;;;4.13;;
4986;SDS011;12674;51.500;7.552;2023-02-01T01:49:36;19.27;;;4.00;;
4986;SDS011;12674;51.500;7.552;2023-02-01T01:51:40;19.43;;;4.73;;
4986;SDS011;12674;51.500;7.552;2023-02-01T01:53:46;16.03;;;4.33;;
4986;SDS011;12674;51.500;7.552;2023-02-01T01:55:51;20.93;;;5.13;;
4986;SDS011;12674;51.500;7.552;2023-02-01T01:57:57;14.20;;;4.10;;
4986;SDS011;12674;51.500;7.552;2023-02-01T02:00:04;21.20;;;4.67;;
4986;SDS011;12674;51.500;7.552;2023-02-01T02:02:17;17.00;;;4.77;;
4986;SDS011;12674;51.500;7.552;2023-02-01T02:04:20;18.10;;;4.53;;
4986;SDS011;12674;51.500;7.552;2023-02-01T02:06:28;19.70;;;5.33;;
4986;SDS011;12674;51.500;7.552;2023-02-01T02:08:35;16.20;;;4.63;;
4986;SDS011;12674;51.500;7.552;2023-02-01T02:10:41;16.40;;;5.47;;
4986;SDS011;12674;51.500;7.552;2023-02-01T02:13:03;19.70;;;4.77;;
4986;SDS011;12674;51.500;7.552;2023-02-01T02:15:06;17.20;;;4.77;;
4986;SDS011;12674;51.500;7.552;2023-02-01T02:17:14;22.53;;;4.80;;
4986;SDS011;12674;51.500;7.552;2023-02-01T02:19:34;18.03;;;5.17;;
4986;SDS011;12674;51.500;7.552;2023-02-01T02:21:52;20.43;;;5.13;;
4986;SDS011;12674;51.500;7.552;2023-02-01T02:24:10;18.03;;;4.70;;
4986;SDS011;12674;51.500;7.552;2023-02-01T02:26:35;28.23;;;5.50;;
4986;SDS011;12674;51.500;7.552;2023-02-01T02:31:46;19.97;;;5.10;;
4986;SDS011;12674;51.500;7.552;2023-02-01T02:34:00;24.00;;;5.10;;
4986;SDS011;12674;51.500;7.552;2023-02-01T02:36:08;26.13;;;6.00;;
4986;SDS011;12674;51.500;7.552;2023-02-01T02:38:15;25.73;;;5.50;;
4986;SDS011;12674;51.500;7.552;2023-02-01T02:40:23;28.30;;;5.53;;
4986;SDS011;12674;51.500;7.552;2023-02-01T02:42:34;23.77;;;5.47;;
4986;SDS011;12674;51.500;7.552;2023-02-01T02:45:00;20.67;;;5.20;;
4986;SDS011;12674;51.500;7.552;2023-02-01T02:47:24;21.47;;;5.03;;
4986;SDS011;12674;51.500;7.552;2023-02-01T02:49:34;14.40;;;4.57;;
4986;SDS011;12674;51.500;7.552;2023-02-01T02:51:40;15.40;;;4.83;;
4986;SDS011;12674;51.500;7.552;2023-02-01T02:54:04;18.33;;;4.70;;
4986;SDS011;12674;51.500;7.552;2023-02-01T02:56:26;25.30;;;4.63;;
4986;SDS011;12674;51.500;7.552;2023-02-01T02:58:47;20.37;;;4.90;;
4986;SDS011;12674;51.500;7.552;2023-02-01T03:01:08;20.90;;;5.33;;
4986;SDS011;12674;51.500;7.552;2023-02-01T03:03:29;22.73;;;5.27;;
4986;SDS011;12674;51.500;7.552;2023-02-01T03:05:51;17.93;;;3.60;;
4986;SDS011;12674;51.500;7.552;2023-02-01T03:08:01;26.10;;;5.47;;
4986;SDS011;12674;51.500;7.552;2023-02-01T03:10:05;17.00;;;4.10;;
4986;SDS011;12674;51.500;7.552;2023-02-01T03:12:12;18.13;;;4.70;;
4986;SDS011;12674;51.500;7.552;2023-02-01T03:14:33;19.70;;;4.73;;
4986;SDS011;12674;51.500;7.552;2023-02-01T03:16:40;20.60;;;4.73;;
4986;SDS011;12674;51.500;7.552;2023-02-01T03:18:46;17.27;;;4.23;;
4986;SDS011;12674;51.500;7.552;2023-02-01T03:20:53;21.53;;;4.23;;
4986;SDS011;12674;51.500;7.552;2023-02-01T03:22:59;21.73;;;4.47;;
4986;SDS011;12674;51.500;7.552;2023-02-01T03:25:04;17.33;;;4.00;;
4986;SDS011;12674;51.500;7.552;2023-02-01T03:27:10;22.13;;;4.00;;
4986;SDS011;12674;51.500;7.552;2023-02-01T03:29:17;19.10;;;4.23;;
4986;SDS011;12674;51.500;7.552;2023-02-01T03:31:23;22.73;;;4.40;;
4986;SDS011;12674;51.500;7.552;2023-02-01T03:33:27;16.53;;;4.13;;
4986;SDS011;12674;51.500;7.552;2023-02-01T03:35:34;18.70;;;4.30;;
4986;SDS011;12674;51.500;7.552;2023-02-01T03:37:43;22.53;;;4.60;;
4986;SDS011;12674;51.500;7.552;2023-02-01T03:39:47;24.73;;;4.23;;
4986;SDS011;12674;51.500;7.552;2023-02-01T03:41:55;21.73;;;4.40;;
4986;SDS011;12674;51.500;7.552;2023-02-01T03:44:01;16.90;;;3.87;;
4986;SDS011;12674;51.500;7.552;2023-02-01T03:46:09;20.40;;;4.63;;
4986;SDS011;12674;51.500;7.552;2023-02-01T03:48:15;21.60;;;4.23;;
4986;SDS011;12674;51.500;7.552;2023-02-01T03:50:19;19.07;;;4.53;;
4986;SDS011;12674;51.500;7.552;2023-02-01T03:52:25;15.00;;;3.80;;
4986;SDS011;12674;51.500;7.552;2023-02-01T03:54:31;14.87;;;3.27;;
4986;SDS011;12674;51.500;7.552;2023-02-01T03:56:35;19.50;;;3.83;;
4986;SDS011;12674;51.500;7.552;2023-02-01T03:58:39;21.03;;;4.00;;
4986;SDS011;12674;51.500;7.552;2023-02-01T04:00:43;16.70;;;3.57;;
4986;SDS011;12674;51.500;7.552;2023-02-01T04:02:48;19.97;;;4.57;;
4986;SDS011;12674;51.500;7.552;2023-02-01T04:04:51;17.93;;;3.33;;
4986;SDS011;12674;51.500;7.552;2023-02-01T04:06:54;18.57;;;3.40;;
4986;SDS011;12674;51.500;7.552;2023-02-01T04:08:57;22.23;;;4.03;;
4986;SDS011;12674;51.500;7.552;2023-02-01T04:11:01;20.93;;;4.07;;
4986;SDS011;12674;51.500;7.552;2023-02-01T04:13:04;21.43;;;4.10;;
4986;SDS011;12674;51.500;7.552;2023-02-01T04:15:08;29.10;;;4.87;;
4986;SDS011;12674;51.500;7.552;2023-02-01T04:17:11;11.10;;;3.80;;
4986;SDS011;12674;51.500;7.552;2023-02-01T04:19:14;17.33;;;3.40;;
4986;SDS011;12674;51.500;7.552;2023-02-01T04:21:17;19.53;;;3.97;;
4986;SDS011;12674;51.500;7.552;2023-02-01T04:23:20;20.33;;;4.53;;
4986;SDS011;12674;51.500;7.552;2023-02-01T04:25:23;31.43;;;3.70;;
4986;SDS011;12674;51.500;7.552;2023-02-01T04:27:28;17.20;;;3.73;;
4986;SDS011;12674;51.500;7.552;2023-02-01T04:29:31;21.13;;;4.00;;
4986;SDS011;12674;51.500;7.552;2023-02-01T04:31:34;17.87;;;5.00;;
4986;SDS011;12674;51.500;7.552;2023-02-01T04:33:38;17.53;;;3.37;;
4986;SDS011;12674;51.500;7.552;2023-02-01T04:35:40;27.57;;;4.47;;
4986;SDS011;12674;51.500;7.552;2023-02-01T04:37:43;19.13;;;3.70;;
4986;SDS011;12674;51.500;7.552;2023-02-01T04:39:46;18.97;;;4.03;;
4986;SDS011;12674;51.500;7.552;2023-02-01T04:41:49;18.40;;;4.60;;
4986;SDS011;12674;51.500;7.552;2023-02-01T04:43:54;16.93;;;3.70;;
4986;SDS011;12674;51.500;7.552;2023-02-01T04:45:56;29.77;;;4.07;;
4986;SDS011;12674;51.500;7.552;2023-02-01T04:47:59;26.90;;;4.10;;
4986;SDS011;12674;51.500;7.552;2023-02-01T04:50:02;31.53;;;4.30;;
4986;SDS011;12674;51.500;7.552;2023-02-01T04:52:08;17.50;;;4.23;;
4986;SDS011;12674;51.500;7.552;2023-02-01T04:54:11;19.67;;;4.30;;
4986;SDS011;12674;51.500;7.552;2023-02-01T04:56:14;16.87;;;4.00;;
4986;SDS011;12674;51.500;7.552;2023-02-01T04:58:17;27.13;;;4.47;;
4986;SDS011;12674;51.500;7.552;2023-02-01T05:00:21;20.67;;;4.13;;
4986;SDS011;12674;51.500;7.552;2023-02-01T05:02:25;23.43;;;4.17;;
4986;SDS011;12674;51.500;7.552;2023-02-01T05:04:28;25.17;;;4.20;;
4986;SDS011;12674;51.500;7.552;2023-02-01T05:06:30;27.40;;;5.33;;
4986;SDS011;12674;51.500;7.552;2023-02-01T05:08:33;24.90;;;4.43;;
4986;SDS011;12674;51.500;7.552;2023-02-01T05:10:39;19.43;;;4.30;;
4986;SDS011;12674;51.500;7.552;2023-02-01T05:12:42;20.90;;;4.73;;
4986;SDS011;12674;51.500;7.552;2023-02-01T05:15:03;18.00;;;3.87;;
4986;SDS011;12674;51.500;7.552;2023-02-01T05:17:08;22.00;;;5.03;;
4986;SDS011;12674;51.500;7.552;2023-02-01T05:19:11;21.80;;;4.60;;
4986;SDS011;12674;51.500;7.552;2023-02-01T05:21:14;26.60;;;4.83;;
4986;SDS011;12674;51.500;7.552;2023-02-01T05:23:17;20.17;;;4.57;;
4986;SDS011;12674;51.500;7.552;2023-02-01T05:25:20;16.13;;;4.17;;
4986;SDS011;12674;51.500;7.552;2023-02-01T05:27:23;19.00;;;5.10;;
4986;SDS011;12674;51.500;7.552;2023-02-01T05:29:27;25.43;;;4.53;;
4986;SDS011;12674;51.500;7.552;2023-02-01T05:31:30;23.60;;;4.57;;
4986;SDS011;12674;51.500;7.552;2023-02-01T05:33:35;20.00;;;4.10;;
4986;SDS011;12674;51.500;7.552;2023-02-01T05:35:38;23.77;;;4.43;;
4986;SDS011;12674;51.500;7.552;2023-02-01T05:37:41;22.70;;;3.90;;
4986;SDS011;12674;51.500;7.552;2023-02-01T05:39:44;23.43;;;3.80;;
4986;SDS011;12674;51.500;7.552;2023-02-01T05:41:48;22.23;;;4.60;;
4986;SDS011;12674;51.500;7.552;2023-02-01T05:43:51;21.53;;;4.27;;
4986;SDS011;12674;51.500;7.552;2023-02-01T05:45:54;19.23;;;4.57;;
4986;SDS011;12674;51.500;7.552;2023-02-01T05:47:57;21.17;;;4.27;;
4986;SDS011;12674;51.500;7.552;2023-02-01T05:50:01;30.93;;;4.70;;
4986;SDS011;12674;51.500;7.552;2023-02-01T05:52:04;29.47;;;4.30;;
4986;SDS011;12674;51.500;7.552;2023-02-01T05:54:08;23.83;;;4.67;;
4986;SDS011;12674;51.500;7.552;2023-02-01T05:56:12;24.50;;;4.77;;
4986;SDS011;12674;51.500;7.552;2023-02-01T05:58:14;18.20;;;4.20;;
4986;SDS011;12674;51.500;7.552;2023-02-01T06:00:18;28.10;;;4.57;;
4986;SDS011;12674;51.500;7.552;2023-02-01T06:02:22;19.13;;;4.50;;
4986;SDS011;12674;51.500;7.552;2023-02-01T06:04:26;17.53;;;4.90;;
4986;SDS011;12674;51.500;7.552;2023-02-01T06:06:30;27.13;;;4.90;;
4986;SDS011;12674;51.500;7.552;2023-02-01T06:08:33;28.17;;;4.47;;
4986;SDS011;12674;51.500;7.552;2023-02-01T06:10:36;31.27;;;4.60;;
4986;SDS011;12674;51.500;7.552;2023-02-01T06:12:39;14.53;;;3.27;;
4986;SDS011;12674;51.500;7.552;2023-02-01T06:14:42;19.17;;;3.87;;
4986;SDS011;12674;51.500;7.552;2023-02-01T06:16:46;27.40;;;5.30;;
4986;SDS011;12674;51.500;7.552;2023-02-01T06:18:49;14.17;;;3.90;;
4986;SDS011;12674;51.500;7.552;2023-02-01T06:20:52;22.13;;;4.50;;
4986;SDS011;12674;51.500;7.552;2023-02-01T06:22:59;34.40;;;6.07;;
4986;SDS011;12674;51.500;7.552;2023-02-01T06:25:02;31.33;;;3.90;;
4986;SDS011;12674;51.500;7.552;2023-02-01T06:27:05;23.33;;;4.70;;
4986;SDS011;12674;51.500;7.552;2023-02-01T06:29:09;27.13;;;5.40;;
4986;SDS011;12674;51.500;7.552;2023-02-01T06:31:12;26.30;;;4.37;;
4986;SDS011;12674;51.500;7.552;2023-02-01T06:33:16;16.77;;;3.80;;
4986;SDS011;12674;51.500;7.552;2023-02-01T06:35:19;24.07;;;5.90;;
4986;SDS011;12674;51.500;7.552;2023-02-01T06:37:23;20.30;;;4.10;;
4986;SDS011;12674;51.500;7.552;2023-02-01T06:39:30;27.63;;;4.30;;
4986;SDS011;12674;51.500;7.552;2023-02-01T06:41:33;24.63;;;3.80;;
4986;SDS011;12674;51.500;7.552;2023-02-01T06:43:36;23.30;;;4.13;;
4986;SDS011;12674;51.500;7.552;2023-02-01T06:45:39;21.07;;;5.03;;
4986;SDS011;12674;51.500;7.552;2023-02-01T06:47:43;21.23;;;4.23;;
4986;SDS011;12674;51.500;7.552;2023-02-01T06:49:46;20.87;;;3.80;;
4986;SDS011;12674;51.500;7.552;2023-02-01T06:51:48;21.43;;;4.50;;
4986;SDS011;12674;51.500;7.552;2023-02-01T06:53:52;27.17;;;4.70;;
4986;SDS011;12674;51.500;7.552;2023-02-01T06:55:56;17.47;;;3.70;;
4986;SDS011;12674;51.500;7.552;2023-02-01T06:58:00;18.20;;;4.80;;
4986;SDS011;12674;51.500;7.552;2023-02-01T07:00:04;22.10;;;4.43;;
4986;SDS011;12674;51.500;7.552;2023-02-01T07:02:09;22.03;;;5.80;;
4986;SDS011;12674;51.500;7.552;2023-02-01T07:04:12;25.00;;;4.57;;
4986;SDS011;12674;51.500;7.552;2023-02-01T07:06:15;21.03;;;4.93;;
4986;SDS011;12674;51.500;7.552;2023-02-01T07:08:19;16.40;;;3.90;;
4986;SDS011;12674;51.500;7.552;2023-02-01T07:10:21;21.20;;;4.63;;
4986;SDS011;12674;51.500;7.552;2023-02-01T07:12:28;17.67;;;3.90;;
4986;SDS011;12674;51.500;7.552;2023-02-01T07:14:31;20.50;;;4.70;;
4986;SDS011;12674;51.500;7.552;2023-02-01T07:16:34;20.90;;;4.50;;
4986;SDS011;12674;51.500;7.552;2023-02-01T07:18:37;14.67;;;4.07;;
4986;SDS011;12674;51.500;7.552;2023-02-01T07:20:40;29.53;;;4.53;;
4986;SDS011;12674;51.500;7.552;2023-02-01T07:22:44;29.80;;;5.27;;
4986;SDS011;12674;51.500;7.552;2023-02-01T07:24:46;24.20;;;4.77;;
4986;SDS011;12674;51.500;7.552;2023-02-01T07:26:49;21.17;;;5.47;;
4986;SDS011;12674;51.500;7.552;2023-02-01T07:28:54;18.30;;;3.47;;
4986;SDS011;12674;51.500;7.552;2023-02-01T07:31:01;25.40;;;4.93;;
4986;SDS011;12674;51.500;7.552;2023-02-01T07:33:06;22.97;;;4.70;;
4986;SDS011;12674;51.500;7.552;2023-02-01T07:35:09;27.20;;;4.43;;
4986;SDS011;12674;51.500;7.552;2023-02-01T07:37:12;19.90;;;4.43;;
4986;SDS011;12674;51.500;7.552;2023-02-01T07:39:16;15.80;;;4.03;;
4986;SDS011;12674;51.500;7.552;2023-02-01T07:41:18;26.77;;;4.80;;
4986;SDS011;12674;51.500;7.552;2023-02-01T07:43:21;18.50;;;4.63;;
4986;SDS011;12674;51.500;7.552;2023-02-01T07:45:25;17.97;;;4.53;;
4986;SDS011;12674;51.500;7.552;2023-02-01T07:47:28;20.27;;;5.00;;
4986;SDS011;12674;51.500;7.552;2023-02-01T07:49:31;19.33;;;4.13;;
4986;SDS011;12674;51.500;7.552;2023-02-01T07:51:34;21.13;;;5.53;;
4986;SDS011;12674;51.500;7.552;2023-02-01T07:53:38;13.20;;;3.47;;
4986;SDS011;12674;51.500;7.552;2023-02-01T07:55:41;20.90;;;4.73;;
4986;SDS011;12674;51.500;7.552;2023-02-01T07:57:44;16.53;;;3.97;;
4986;SDS011;12674;51.500;7.552;2023-02-01T07:59:47;25.87;;;5.77;;
4986;SDS011;12674;51.500;7.552;2023-02-01T08:02:14;28.13;;;4.23;;
4986;SDS011;12674;51.500;7.552;2023-02-01T08:04:17;26.27;;;5.30;;
4986;SDS011;12674;51.500;7.552;2023-02-01T08:06:20;21.33;;;4.80;;
4986;SDS011;12674;51.500;7.552;2023-02-01T08:08:24;24.40;;;4.53;;
4986;SDS011;12674;51.500;7.552;2023-02-01T08:10:26;22.73;;;5.10;;
4986;SDS011;12674;51.500;7.552;2023-02-01T08:12:29;32.27;;;4.70;;
4986;SDS011;12674;51.500;7.552;2023-02-01T08:14:32;21.03;;;4.93;;
4986;SDS011;12674;51.500;7.552;2023-02-01T08:16:36;20.87;;;4.53;;
4986;SDS011;12674;51.500;7.552;2023-02-01T08:18:42;21.40;;;5.73;;
4986;SDS011;12674;51.500;7.552;2023-02-01T08:20:45;28.10;;;5.53;;
4986;SDS011;12674;51.500;7.552;2023-02-01T08:22:49;17.53;;;4.73;;
4986;SDS011;12674;51.500;7.552;2023-02-01T08:24:54;31.43;;;5.70;;
4986;SDS011;12674;51.500;7.552;2023-02-01T08:27:02;19.80;;;4.83;;
4986;SDS011;12674;51.500;7.552;2023-02-01T08:29:06;31.20;;;5.80;;
4986;SDS011;12674;51.500;7.552;2023-02-01T08:31:10;29.00;;;6.77;;
4986;SDS011;12674;51.500;7.552;2023-02-01T08:33:16;24.80;;;5.30;;
4986;SDS011;12674;51.500;7.552;2023-02-01T08:35:20;26.63;;;5.93;;
4986;SDS011;12674;51.500;7.552;2023-02-01T08:37:34;26.97;;;4.90;;
4986;SDS011;12674;51.500;7.552;2023-02-01T08:39:38;22.90;;;5.20;;
4986;SDS011;12674;51.500;7.552;2023-02-01T08:41:47;24.77;;;5.30;;
4986;SDS011;12674;51.500;7.552;2023-02-01T08:44:10;18.70;;;4.70;;
4986;SDS011;12674;51.500;7.552;2023-02-01T08:46:14;25.60;;;5.57;;
4986;SDS011;12674;51.500;7.552;2023-02-01T08:48:17;21.00;;;5.10;;
4986;SDS011;12674;51.500;7.552;2023-02-01T08:50:22;19.27;;;5.23;;
4986;SDS011;12674;51.500;7.552;2023-02-01T08:52:26;33.53;;;6.70;;
4986;SDS011;12674;51.500;7.552;2023-02-01T08:54:29;29.30;;;6.27;;
4986;SDS011;12674;51.500;7.552;2023-02-01T08:56:32;27.27;;;5.30;;
4986;SDS011;12674;51.500;7.552;2023-02-01T08:58:35;26.37;;;5.17;;
4986;SDS011;12674;51.500;7.552;2023-02-01T09:00:38;19.70;;;5.37;;
4986;SDS011;12674;51.500;7.552;2023-02-01T09:02:41;18.80;;;4.57;;
4986;SDS011;12674;51.500;7.552;2023-02-01T09:04:44;35.03;;;5.83;;
4986;SDS011;12674;51.500;7.552;2023-02-01T09:06:48;24.47;;;4.87;;
4986;SDS011;12674;51.500;7.552;2023-02-01T09:08:51;25.83;;;5.20;;
4986;SDS011;12674;51.500;7.552;2023-02-01T09:10:57;24.67;;;5.70;;
4986;SDS011;12674;51.500;7.552;2023-02-01T09:13:03;26.73;;;6.27;;
4986;SDS011;12674;51.500;7.552;2023-02-01T09:15:07;21.43;;;4.90;;
4986;SDS011;12674;51.500;7.552;2023-02-01T09:17:11;28.70;;;5.70;;
4986;SDS011;12674;51.500;7.552;2023-02-01T09:19:14;20.33;;;5.23;;
4986;SDS011;12674;51.500;7.552;2023-02-01T09:21:27;29.70;;;6.43;;
4986;SDS011;12674;51.500;7.552;2023-02-01T09:23:32;27.50;;;5.27;;
4986;SDS011;12674;51.500;7.552;2023-02-01T09:25:36;21.37;;;6.57;;
4986;SDS011;12674;51.500;7.552;2023-02-01T09:27:39;30.57;;;6.53;;
4986;SDS011;12674;51.500;7.552;2023-02-01T09:29:42;19.27;;;5.30;;
4986;SDS011;12674;51.500;7.552;2023-02-01T09:31:45;22.57;;;4.43;;
4986;SDS011;12674;51.500;7.552;2023-02-01T09:34:03;25.10;;;5.30;;
4986;SDS011;12674;51.500;7.552;2023-02-01T09:36:06;21.40;;;5.60;;
4986;SDS011;12674;51.500;7.552;2023-02-01T09:38:09;25.07;;;5.30;;
4986;SDS011;12674;51.500;7.552;2023-02-01T09:40:14;33.37;;;5.67;;
4986;SDS011;12674;51.500;7.552;2023-02-01T09:42:21;43.57;;;7.77;;
4986;SDS011;12674;51.500;7.552;2023-02-01T09:44:36;21.63;;;4.83;;
4986;SDS011;12674;51.500;7.552;2023-02-01T09:46:53;25.83;;;5.00;;
4986;SDS011;12674;51.500;7.552;2023-02-01T09:48:59;28.20;;;6.87;;
4986;SDS011;12674;51.500;7.552;2023-02-01T09:51:06;27.17;;;5.50;;
4986;SDS011;12674;51.500;7.552;2023-02-01T09:53:12;22.07;;;4.70;;
4986;SDS011;12674;51.500;7.552;2023-02-01T09:55:22;22.33;;;4.77;;
4986;SDS011;12674;51.500;7.552;2023-02-01T09:57:31;28.83;;;5.17;;
4986;SDS011;12674;51.500;7.552;2023-02-01T09:59:43;16.70;;;5.20;;
4986;SDS011;12674;51.500;7.552;2023-02-01T10:01:50;19.73;;;5.03;;
4986;SDS011;12674;51.500;7.552;2023-02-01T10:03:57;26.80;;;5.43;;
4986;SDS011;12674;51.500;7.552;2023-02-01T10:06:17;19.50;;;4.83;;
4986;SDS011;12674;51.500;7.552;2023-02-01T10:08:26;29.53;;;5.70;;
4986;SDS011;12674;51.500;7.552;2023-02-01T10:10:38;26.13;;;4.67;;
4986;SDS011;12674;51.500;7.552;2023-02-01T10:12:52;24.83;;;4.40;;
4986;SDS011;12674;51.500;7.552;2023-02-01T10:15:05;21.37;;;5.17;;
4986;SDS011;12674;51.500;7.552;2023-02-01T10:17:19;22.93;;;4.83;;
4986;SDS011;12674;51.500;7.552;2023-02-01T10:19:31;22.77;;;4.40;;
4986;SDS011;12674;51.500;7.552;2023-02-01T10:21:42;17.20;;;5.17;;
4986;SDS011;12674;51.500;7.552;2023-02-01T10:23:57;18.93;;;5.40;;
4986;SDS011;12674;51.500;7.552;2023-02-01T10:26:20;21.73;;;4.90;;
4986;SDS011;12674;51.500;7.552;2023-02-01T10:28:24;25.20;;;5.73;;
4986;SDS011;12674;51.500;7.552;2023-02-01T10:30:30;23.33;;;5.40;;
4986;SDS011;12674;51.500;7.552;2023-02-01T10:32:36;24.80;;;5.40;;
4986;SDS011;12674;51.500;7.552;2023-02-01T10:34:39;20.77;;;5.10;;
4986;SDS011;12674;51.500;7.552;2023-02-01T10:36:45;20.43;;;4.87;;
4986;SDS011;12674;51.500;7.552;2023-02-01T10:38:53;17.70;;;5.30;;
4986;SDS011;12674;51.500;7.552;2023-02-01T10:40:57;20.37;;;5.70;;
4986;SDS011;12674;51.500;7.552;2023-02-01T10:43:04;20.57;;;5.37;;
4986;SDS011;12674;51.500;7.552;2023-02-01T10:45:11;28.73;;;5.73;;
4986;SDS011;12674;51.500;7.552;2023-02-01T10:47:16;29.27;;;4.60;;
4986;SDS011;12674;51.500;7.552;2023-02-01T10:49:20;25.23;;;5.80;;
4986;SDS011;12674;51.500;7.552;2023-02-01T10:51:30;21.50;;;5.30;;
4986;SDS011;12674;51.500;7.552;2023-02-01T10:53:42;26.30;;;5.03;;
4986;SDS011;12674;51.500;7.552;2023-02-01T10:55:48;27.60;;;6.10;;
4986;SDS011;12674;51.500;7.552;2023-02-01T10:57:55;23.43;;;5.53;;
4986;SDS011;12674;51.500;7.552;2023-02-01T11:00:00;17.97;;;4.60;;
4986;SDS011;12674;51.500;7.552;2023-02-01T11:02:13;25.77;;;5.20;;
4986;SDS011;12674;51.500;7.552;2023-02-01T11:04:22;17.30;;;4.17;;
4986;SDS011;12674;51.500;7.552;2023-02-01T11:06:28;19.43;;;5.13;;
4986;SDS011;12674;51.500;7.552;2023-02-01T11:08:32;25.50;;;5.90;;
4986;SDS011;12674;51.500;7.552;2023-02-01T11:10:36;23.30;;;4.63;;
4986;SDS011;12674;51.500;7.552;2023-02-01T11:12:39;22.30;;;4.97;;
4986;SDS011;12674;51.500;7.552;2023-02-01T11:14:42;32.50;;;5.17;;
4986;SDS011;12674;51.500;7.552;2023-02-01T11:16:48;20.60;;;4.80;;
4986;SDS011;12674;51.500;7.552;2023-02-01T11:18:53;14.80;;;4.23;;
4986;SDS011;12674;51.500;7.552;2023-02-01T11:20:57;18.00;;;4.37;;
4986;SDS011;12674;51.500;7.552;2023-02-01T11:23:01;21.70;;;4.60;;
4986;SDS011;12674;51.500;7.552;2023-02-01T11:25:07;26.60;;;5.00;;
4986;SDS011;12674;51.500;7.552;2023-02-01T11:27:12;18.30;;;4.63;;
4986;SDS011;12674;51.500;7.552;2023-02-01T11:29:28;22.97;;;4.30;;
4986;SDS011;12674;51.500;7.552;2023-02-01T11:31:34;16.23;;;4.30;;
4986;SDS011;12674;51.500;7.552;2023-02-01T11:33:41;16.83;;;4.40;;
4986;SDS011;12674;51.500;7.552;2023-02-01T11:35:49;18.13;;;3.63;;
4986;SDS011;12674;51.500;7.552;2023-02-01T11:37:54;15.80;;;4.10;;
4986;SDS011;12674;51.500;7.552;2023-02-01T11:40:01;17.80;;;4.50;;
4986;SDS011;12674;51.500;7.552;2023-02-01T11:42:11;18.23;;;3.80;;
4986;SDS011;12674;51.500;7.552;2023-02-01T11:44:18;26.30;;;5.00;;
4986;SDS011;12674;51.500;7.552;2023-02-01T11:46:24;23.57;;;4.70;;
4986;SDS011;12674;51.500;7.552;2023-02-01T11:48:32;26.60;;;5.10;;
4986;SDS011;12674;51.500;7.552;2023-02-01T11:50:37;22.03;;;4.20;;
4986;SDS011;12674;51.500;7.552;2023-02-01T11:52:49;30.60;;;5.10;;
4986;SDS011;12674;51.500;7.552;2023-02-01T11:55:02;17.73;;;4.30;;
4986;SDS011;12674;51.500;7.552;2023-02-01T11:57:17;20.70;;;4.47;;
4986;SDS011;12674;51.500;7.552;2023-02-01T11:59:33;35.40;;;7.47;;
4986;SDS011;12674;51.500;7.552;2023-02-01T12:02:01;21.53;;;4.10;;
4986;SDS011;12674;51.500;7.552;2023-02-01T12:04:18;23.00;;;4.70;;
4986;SDS011;12674;51.500;7.552;2023-02-01T12:06:38;24.30;;;5.50;;
4986;SDS011;12674;51.500;7.552;2023-02-01T12:08:52;18.10;;;4.73;;
4986;SDS011;12674;51.500;7.552;2023-02-01T12:11:10;25.83;;;5.33;;
4986;SDS011;12674;51.500;7.552;2023-02-01T12:13:34;23.80;;;5.60;;
4986;SDS011;12674;51.500;7.552;2023-02-01T12:15:44;26.03;;;5.10;;
4986;SDS011;12674;51.500;7.552;2023-02-01T12:20:49;25.63;;;5.10;;
4986;SDS011;12674;51.500;7.552;2023-02-01T12:23:02;20.63;;;4.47;;
4986;SDS011;12674;51.500;7.552;2023-02-01T12:25:20;19.97;;;4.20;;
4986;SDS011;12674;51.500;7.552;2023-02-01T12:30:22;21.27;;;4.37;;
4986;SDS011;12674;51.500;7.552;2023-02-01T12:32:41;23.63;;;4.17;;
4986;SDS011;12674;51.500;7.552;2023-02-01T12:35:02;22.33;;;4.80;;
4986;SDS011;12674;51.500;7.552;2023-02-01T12:37:14;23.17;;;4.57;;
4986;SDS011;12674;51.500;7.552;2023-02-01T12:39:27;18.77;;;4.73;;
4986;SDS011;12674;51.500;7.552;2023-02-01T12:41:37;15.83;;;4.47;;
4986;SDS011;12674;51.500;7.552;2023-02-01T12:43:47;21.50;;;4.27;;
4986;SDS011;12674;51.500;7.552;2023-02-01T12:45:54;23.10;;;4.47;;
4986;SDS011;12674;51.500;7.552;2023-02-01T12:48:00;16.67;;;4.03;;
4986;SDS011;12674;51.500;7.552;2023-02-01T12:50:12;19.63;;;4.90;;